createdAt,value
2022-11-02T00:03:53.950Z,4
2022-11-02T00:08:53.488Z,4
2022-11-02T00:13:53.349Z,6
2022-11-02T00:18:53.979Z,4
2022-11-02T00:23:54.006Z,4
2022-11-02T00:28:53.358Z,5
2022-11-02T00:33:53.396Z,5
2022-11-02T00:38:53.986Z,8
2022-11-02T00:43:54.044Z,7
2022-11-02T00:48:54.036Z,8
2022-11-02T00:53:54.034Z,8
2022-11-02T00:58:53.411Z,8
2022-11-02T01:03:53.493Z,7
2022-11-02T01:08:53.491Z,7
2022-11-02T01:13:53.482Z,8
2022-11-02T01:18:54.072Z,7
2022-11-02T01:23:53.547Z,8
2022-11-02T01:28:53.602Z,7
2022-11-02T01:33:53.525Z,7
2022-11-02T01:38:53.550Z,7
2022-11-02T01:43:54.050Z,9
2022-11-02T01:48:53.542Z,8
2022-11-02T01:53:54.166Z,10
2022-11-02T01:58:54.311Z,8
2022-11-02T02:03:54.062Z,9
2022-11-02T02:08:54.811Z,10
2022-11-02T02:13:54.173Z,9
2022-11-02T02:18:54.068Z,8
2022-11-02T02:23:53.753Z,8
2022-11-02T02:28:53.620Z,9
2022-11-02T02:33:54.094Z,8
2022-11-02T02:38:54.114Z,9
2022-11-02T02:43:54.144Z,9
2022-11-02T02:48:54.261Z,8
2022-11-02T02:53:54.250Z,8
2022-11-02T02:58:54.313Z,8
2022-11-02T03:03:53.673Z,7
2022-11-02T03:08:54.279Z,8
2022-11-02T03:13:54.913Z,7
2022-11-02T03:18:54.328Z,8
2022-11-02T03:23:54.334Z,9
2022-11-02T03:28:53.773Z,10
2022-11-02T03:33:53.755Z,9
2022-11-02T03:38:53.761Z,9
2022-11-02T03:43:54.368Z,8
2022-11-02T03:48:54.298Z,11
2022-11-02T03:53:54.458Z,11
2022-11-02T03:58:54.331Z,13
2022-11-02T04:03:54.456Z,11
2022-11-02T04:08:54.611Z,10
2022-11-02T04:13:53.777Z,9
2022-11-02T04:18:54.405Z,10
2022-11-02T04:23:54.362Z,9
2022-11-02T04:28:54.336Z,8
2022-11-02T04:33:54.366Z,8
2022-11-02T04:38:54.349Z,9
2022-11-02T04:43:53.916Z,9
2022-11-02T04:48:54.988Z,9
2022-11-02T04:53:54.588Z,9
2022-11-02T04:58:53.862Z,8
2022-11-02T05:03:53.908Z,9
2022-11-02T05:08:54.410Z,8
2022-11-02T05:13:54.436Z,9
2022-11-02T05:18:54.558Z,9
2022-11-02T05:23:55.161Z,10
2022-11-02T05:28:54.577Z,10
2022-11-02T05:33:54.438Z,9
2022-11-02T05:38:54.539Z,9
2022-11-02T05:43:54.668Z,9
2022-11-02T05:48:55.346Z,10
2022-11-02T05:53:54.009Z,10
2022-11-02T05:58:54.653Z,10
2022-11-02T06:04:00.649Z,11
2022-11-02T06:08:54.025Z,11
2022-11-02T06:13:54.011Z,11
2022-11-02T06:18:54.675Z,12
2022-11-02T06:23:54.087Z,12
2022-11-02T06:28:54.563Z,15
2022-11-02T06:33:54.138Z,13
2022-11-02T06:38:55.331Z,13
2022-11-02T06:43:55.275Z,12
2022-11-02T06:48:54.581Z,13
2022-11-02T06:53:54.122Z,13
2022-11-02T06:58:54.699Z,16
2022-11-02T07:03:54.126Z,14
2022-11-02T07:08:54.123Z,12
2022-11-02T07:13:54.115Z,12
2022-11-02T07:18:54.171Z,11
2022-11-02T07:23:55.599Z,12
2022-11-02T07:28:56.707Z,10
2022-11-02T07:33:54.742Z,10
2022-11-02T07:38:55.412Z,11
2022-11-02T07:43:55.426Z,12
2022-11-02T07:48:54.820Z,14
2022-11-02T07:53:54.847Z,17
2022-11-02T07:58:55.408Z,14
2022-11-02T08:03:55.390Z,11
2022-11-02T08:08:54.249Z,12
2022-11-02T08:13:54.839Z,12
2022-11-02T08:18:54.944Z,13
2022-11-02T08:23:58.460Z,13
2022-11-02T08:28:54.749Z,14
2022-11-02T08:33:54.764Z,14
2022-11-02T08:38:55.437Z,15
2022-11-02T08:43:54.878Z,29
2022-11-02T08:48:55.387Z,14
2022-11-02T08:53:54.829Z,23
2022-11-02T08:58:55.419Z,22
2022-11-02T09:03:54.405Z,15
2022-11-02T09:08:56.339Z,34
2022-11-02T09:13:57.004Z,18
2022-11-02T09:18:54.355Z,15
2022-11-02T09:23:54.881Z,13
2022-11-02T09:28:54.395Z,20
2022-11-02T09:33:54.371Z,18
2022-11-02T09:38:54.980Z,15
2022-11-02T09:43:54.442Z,13
2022-11-02T09:48:55.646Z,23
2022-11-02T09:53:55.084Z,7
2022-11-02T09:58:54.455Z,9
2022-11-02T10:03:54.465Z,6
2022-11-02T10:08:55.235Z,6
2022-11-02T10:13:56.617Z,6
2022-11-02T10:18:55.112Z,5
2022-11-02T10:23:54.521Z,6
2022-11-02T10:28:54.507Z,6
2022-11-02T10:33:55.562Z,4
2022-11-02T10:38:55.145Z,9
2022-11-02T10:43:55.723Z,5
2022-11-02T10:48:55.158Z,6
2022-11-02T10:53:54.598Z,6
2022-11-02T10:58:55.163Z,5
2022-11-02T11:03:54.641Z,5
2022-11-02T11:08:54.565Z,5
2022-11-02T11:23:55.273Z,5
2022-11-02T11:28:54.599Z,5
2022-11-02T11:33:54.627Z,5
2022-11-02T11:38:54.614Z,5
2022-11-02T11:43:56.045Z,5
2022-11-02T11:48:54.646Z,4
2022-11-02T11:53:54.670Z,5
2022-11-02T11:58:55.268Z,5
2022-11-02T12:03:55.326Z,5
2022-11-02T12:08:57.050Z,4
2022-11-02T12:13:55.284Z,5
2022-11-02T12:18:56.011Z,4
2022-11-02T12:23:56.100Z,4
2022-11-02T12:28:55.352Z,6
2022-11-02T12:33:54.850Z,4
2022-11-02T12:38:55.258Z,6
2022-11-02T12:43:55.394Z,8
2022-11-02T12:48:55.535Z,6
2022-11-02T12:53:55.368Z,5
2022-11-02T12:58:54.834Z,5
2022-11-02T13:03:55.401Z,4
2022-11-02T13:08:55.436Z,5
2022-11-02T13:13:56.119Z,4
2022-11-02T13:18:56.000Z,5
2022-11-02T13:23:56.065Z,6
2022-11-02T13:28:56.093Z,5
2022-11-02T13:33:54.843Z,5
2022-11-02T13:38:54.835Z,4
2022-11-02T13:43:55.417Z,4
2022-11-02T13:48:55.386Z,5
2022-11-02T13:53:55.387Z,4
2022-11-02T13:58:55.573Z,6
2022-11-02T14:04:00.574Z,3
2022-11-02T14:08:55.440Z,4
2022-11-02T14:13:55.985Z,4
2022-11-02T14:18:55.453Z,3
2022-11-02T14:23:55.456Z,4
2022-11-02T14:28:55.466Z,3
2022-11-02T14:33:54.920Z,5
2022-11-02T14:38:55.009Z,3
2022-11-02T14:43:55.488Z,3
2022-11-02T14:48:55.556Z,4
2022-11-02T14:53:55.506Z,4
2022-11-02T14:58:54.972Z,13
2022-11-02T15:03:56.116Z,7
2022-11-02T15:08:55.529Z,5
2022-11-02T15:13:55.584Z,5
2022-11-02T15:18:55.528Z,5
2022-11-02T15:23:55.056Z,4
2022-11-02T15:28:55.579Z,5
2022-11-02T15:33:55.595Z,4
2022-11-02T15:38:55.076Z,5
2022-11-02T15:48:55.588Z,5
2022-11-02T15:53:55.066Z,5
2022-11-02T15:58:55.618Z,5
2022-11-02T16:03:58.544Z,3
2022-11-02T16:08:55.652Z,4
2022-11-02T16:14:08.362Z,4
2022-11-02T16:18:55.683Z,4
2022-11-02T16:23:55.653Z,4
2022-11-02T16:28:55.187Z,6
2022-11-02T16:33:55.643Z,5
2022-11-02T16:39:00.605Z,5
2022-11-02T16:43:55.722Z,5
2022-11-02T16:48:55.707Z,5
2022-11-02T16:53:55.244Z,4
2022-11-02T16:58:57.532Z,5
2022-11-02T17:03:55.785Z,6
2022-11-02T17:08:55.901Z,6
2022-11-02T17:13:55.243Z,9
2022-11-02T17:18:56.003Z,8
2022-11-02T17:23:55.869Z,7
2022-11-02T17:28:55.913Z,7
2022-11-02T17:33:55.333Z,6
2022-11-02T17:38:55.330Z,4
2022-11-02T17:43:56.618Z,5
2022-11-02T17:48:55.923Z,5
2022-11-02T17:53:55.912Z,4
2022-11-02T17:58:55.983Z,4
2022-11-02T18:03:55.944Z,4
2022-11-02T18:08:56.056Z,6
2022-11-02T18:13:55.359Z,5
2022-11-02T18:18:56.062Z,5
2022-11-02T18:23:56.494Z,5
2022-11-02T18:28:55.925Z,7
2022-11-02T18:33:55.400Z,7
2022-11-02T18:38:56.047Z,6
2022-11-02T18:44:00.642Z,5
2022-11-02T18:48:55.906Z,6
2022-11-02T18:53:56.650Z,6
2022-11-02T18:58:55.520Z,6
2022-11-02T19:03:56.783Z,6
2022-11-02T19:08:56.801Z,5
2022-11-02T19:13:56.180Z,6
2022-11-02T19:18:56.748Z,6
2022-11-02T19:23:56.585Z,6
2022-11-02T19:28:55.495Z,8
2022-11-02T19:33:55.475Z,7
2022-11-02T19:38:55.517Z,9
2022-11-02T19:43:56.114Z,9
2022-11-02T19:48:56.184Z,6
2022-11-02T19:53:56.325Z,9
2022-11-02T19:58:56.788Z,8
2022-11-02T20:03:56.192Z,7
2022-11-02T20:08:56.795Z,9
2022-11-02T20:13:55.627Z,6
2022-11-02T20:18:56.210Z,7
2022-11-02T20:23:56.799Z,7
2022-11-02T20:28:56.195Z,7
2022-11-02T20:33:55.612Z,9
2022-11-02T20:38:55.666Z,10
2022-11-02T20:43:56.825Z,7
2022-11-02T20:48:56.129Z,8
2022-11-02T20:53:56.890Z,9
2022-11-02T20:58:56.341Z,9
2022-11-02T21:03:55.687Z,9
2022-11-02T21:08:56.253Z,10
2022-11-02T21:13:56.275Z,8
2022-11-02T21:18:55.724Z,8
2022-11-02T21:23:56.316Z,11
2022-11-02T21:28:56.933Z,10
2022-11-02T21:33:55.930Z,7
2022-11-02T21:38:56.541Z,8
2022-11-02T21:43:56.408Z,8
2022-11-02T21:48:56.397Z,6
2022-11-02T21:53:56.398Z,7
2022-11-02T21:58:56.885Z,7
2022-11-02T22:03:56.299Z,8
2022-11-02T22:08:55.809Z,8
2022-11-02T22:13:55.847Z,9
2022-11-02T22:18:56.346Z,9
2022-11-02T22:23:56.977Z,6
2022-11-02T22:28:56.299Z,7
2022-11-02T22:33:55.885Z,8
2022-11-02T22:38:55.908Z,8
2022-11-02T22:43:55.869Z,8
2022-11-02T22:48:56.414Z,6
2022-11-02T22:53:56.388Z,6
2022-11-02T22:58:55.904Z,6
2022-11-02T23:03:57.025Z,10
2022-11-02T23:08:56.412Z,10
2022-11-02T23:13:56.430Z,10
2022-11-02T23:18:56.432Z,10
2022-11-02T23:23:57.077Z,9
2022-11-02T23:28:56.419Z,10
2022-11-02T23:33:55.949Z,9
2022-11-02T23:38:55.984Z,8
2022-11-02T23:43:55.929Z,8
2022-11-02T23:48:57.107Z,9
2022-11-02T23:53:56.506Z,9
2022-11-02T23:58:56.495Z,8
